Time;durP1;ratioP1;P1;durP2;ratioP2;P2;SDS_P1;SDS_P2;PMS_P1;PMS_P2;Temp;Humidity;BMP_temperature;BMP_pressure;BME280_temperature;BME280_humidity;BME280_pressure;Samples;Min_cycle;Max_cycle;Signal;HPM_P1;HPM_P2
2021/08/25 00:00:31;;;;;;;6.78;2.38;;;7.70;99.90;;;6.14;100.00;102258.53;5033994;28;20063;-75
2021/08/25 00:02:59;;;;;;;4.63;2.47;;;7.70;99.90;;;6.18;100.00;102253.28;5036472;28;20458;-75
2021/08/25 00:05:25;;;;;;;15.32;3.53;;;7.70;99.90;;;6.25;100.00;102261.13;5049620;28;20071;-75
2021/08/25 00:07:51;;;;;;;10.52;3.70;;;7.90;99.90;;;6.47;100.00;102279.34;5054320;28;20393;-75
2021/08/25 00:10:17;;;;;;;12.75;4.15;;;8.10;99.90;;;6.69;100.00;102296.66;5052547;28;20074;-75
2021/08/25 00:12:43;;;;;;;14.35;4.18;;;8.20;99.90;;;6.70;100.00;102287.94;5060692;28;20049;-75
2021/08/25 00:15:09;;;;;;;11.48;4.00;;;8.20;99.90;;;6.71;100.00;102297.53;5034176;28;20079;-75
2021/08/25 00:17:36;;;;;;;11.45;4.00;;;8.20;99.90;;;6.72;100.00;102272.25;5051287;28;20053;-75
2021/08/25 00:20:04;;;;;;;14.25;5.22;;;8.30;99.90;;;6.86;100.00;102277.38;5062889;28;20096;-75
2021/08/25 00:22:30;;;;;;;13.48;5.55;;;8.40;99.90;;;6.94;100.00;102288.69;5057918;28;20063;-75
2021/08/25 00:24:57;;;;;;;15.88;5.47;;;8.40;99.90;;;6.92;100.00;102327.09;5050655;28;20554;-75
2021/08/25 00:27:23;;;;;;;14.95;6.03;;;8.40;99.90;;;6.96;100.00;102279.06;5035570;28;20068;-75
2021/08/25 00:29:49;;;;;;;18.15;5.97;;;8.40;99.90;;;6.96;100.00;102268.59;5051715;28;21597;-75
2021/08/25 00:32:15;;;;;;;27.73;6.75;;;8.50;99.90;;;7.11;100.00;102304.28;5042857;28;20077;-75
2021/08/25 00:34:41;;;;;;;15.63;5.75;;;8.50;99.90;;;7.09;100.00;102272.00;5050170;28;20074;-75
2021/08/25 00:37:07;;;;;;;16.60;5.95;;;8.50;99.90;;;6.99;100.00;102266.81;5034044;28;20056;-75
2021/08/25 00:39:33;;;;;;;17.50;5.55;;;8.50;99.90;;;6.90;100.00;102255.53;5050631;28;20439;-75
2021/08/25 00:41:59;;;;;;;12.80;5.93;;;8.40;99.90;;;6.80;100.00;102249.47;5051856;28;20063;-75
2021/08/25 00:44:26;;;;;;;28.25;0.95;;;8.20;99.90;;;6.48;100.00;102291.53;5042584;28;20531;-75
2021/08/25 00:46:52;;;;;;;1.77;0.70;;;7.90;99.90;;;6.23;100.00;102218.41;5042269;28;20062;-75
2021/08/25 00:49:20;;;;;;;2.92;0.98;;;7.80;99.90;;;6.13;100.00;102214.09;5042297;28;20059;-75
2021/08/25 00:51:47;;;;;;;4.50;2.17;;;7.70;99.90;;;6.05;100.00;102201.06;5049285;28;20093;-75
2021/08/25 00:54:17;;;;;;;4.82;2.80;;;7.70;99.90;;;6.16;100.00;102203.63;5049905;28;20534;-75
2021/08/25 00:56:46;;;;;;;7.35;2.60;;;7.70;99.90;;;6.17;100.00;102210.59;5034982;28;20136;-75
2021/08/25 00:59:13;;;;;;;10.00;2.92;;;7.70;99.90;;;6.21;100.00;102209.69;5035084;28;20154;-76
2021/08/25 01:02:55;;;;;;;10.90;3.45;;;7.80;99.90;;;6.40;100.00;102220.06;5025964;28;20094;-75
2021/08/25 01:05:23;;;;;;;13.93;5.35;;;8.10;99.90;;;6.74;100.00;102239.94;4974760;28;20638;-75
2021/08/25 01:07:52;;;;;;;20.98;5.63;;;8.30;99.90;;;6.90;100.00;102238.06;4989176;28;20523;-75
2021/08/25 01:10:27;;;;;;;16.20;6.03;;;8.50;99.90;;;7.08;100.00;102251.91;5017106;28;20407;-75
2021/08/25 01:13:06;;;;;;;21.00;6.75;;;8.60;99.90;;;7.18;100.00;102246.59;5033561;28;20109;-75
2021/08/25 01:15:42;;;;;;;19.88;6.47;;;8.70;99.90;;;7.22;100.00;102251.81;5032874;28;20079;-75
2021/08/25 01:18:16;;;;;;;13.20;5.97;;;8.70;99.90;;;7.27;100.00;102255.25;5049848;28;20066;-75
2021/08/25 01:20:47;;;;;;;16.65;5.50;;;8.70;99.90;;;7.16;100.00;102237.88;5032681;28;20058;-75
2021/08/25 01:23:17;;;;;;;11.77;4.45;;;8.70;99.90;;;7.18;100.00;102241.34;5043010;28;20066;-76
2021/08/25 01:25:44;;;;;;;13.15;4.60;;;8.70;99.90;;;7.22;100.00;102264.91;5040824;28;20380;-76
2021/08/25 01:28:15;;;;;;;12.40;5.43;;;8.80;99.90;;;7.32;100.00;102296.28;5034586;28;21000;-75
2021/08/25 01:30:41;;;;;;;13.00;6.05;;;8.90;99.90;;;7.49;100.00;102296.09;5056667;28;20063;-75
2021/08/25 01:33:21;;;;;;;15.23;5.78;;;;;;;7.57;100.00;102323.13;5042591;28;20055;-76
2021/08/25 01:35:47;;;;;;;11.38;4.55;;;9.10;99.90;;;7.59;100.00;102344.94;5049417;28;20169;-75
2021/08/25 01:38:43;;;;;;;15.70;5.43;;;9.10;99.90;;;7.64;100.00;102329.19;5034367;28;20080;-75
2021/08/25 01:41:10;;;;;;;12.15;5.45;;;9.20;99.90;;;7.75;100.00;102357.94;5051317;28;20054;-75
2021/08/25 01:43:36;;;;;;;11.82;5.32;;;9.30;99.90;;;7.85;100.00;102392.81;5030730;28;20392;-76
2021/08/25 01:46:02;;;;;;;15.88;5.20;;;9.40;99.90;;;7.97;100.00;102421.59;5052456;28;20081;-75
2021/08/25 01:48:33;;;;;;;12.85;4.82;;;9.50;99.90;;;8.04;100.00;102422.41;5050985;28;20067;-75
2021/08/25 01:51:00;;;;;;;16.65;5.70;;;9.50;99.90;;;8.08;100.00;102494.91;5031373;28;20055;-76
2021/08/25 01:53:26;;;;;;;11.88;4.90;;;9.60;99.90;;;8.15;100.00;102578.84;5033395;28;20067;-75
2021/08/25 01:55:51;;;;;;;10.75;5.03;;;9.60;99.90;;;8.20;100.00;102474.69;5046856;28;20064;-75
2021/08/25 01:58:17;;;;;;;11.70;4.93;;;9.60;99.90;;;8.19;100.00;102459.84;5033959;28;20135;-76
2021/08/25 02:00:44;;;;;;;9.02;4.43;;;9.60;99.90;;;8.19;100.00;102498.34;5049118;28;20069;-75
2021/08/25 02:03:09;;;;;;;9.88;4.50;;;9.60;99.90;;;8.19;100.00;102501.84;5038682;28;20059;-76
2021/08/25 02:05:35;;;;;;;7.95;4.07;;;9.70;99.90;;;8.12;100.00;102483.50;5042365;28;20434;-75
2021/08/25 02:08:01;;;;;;;8.13;3.80;;;9.60;99.90;;;8.04;100.00;102498.47;5063908;28;20063;-75
2021/08/25 02:10:27;;;;;;;8.57;3.75;;;9.50;99.90;;;7.98;100.00;102481.00;5049840;28;20568;-76
2021/08/25 02:12:53;;;;;;;8.50;4.25;;;9.50;99.90;;;7.95;100.00;102487.16;5039619;28;20166;-76
2021/08/25 02:15:19;;;;;;;10.07;4.38;;;9.50;99.90;;;7.93;100.00;102517.78;5052827;28;20429;-75
2021/08/25 02:17:45;;;;;;;10.52;4.40;;;9.40;99.90;;;7.88;100.00;102527.41;5030903;28;20067;-76
2021/08/25 02:20:12;;;;;;;8.65;4.22;;;9.40;99.90;;;7.86;100.00;102576.41;5033910;28;20047;-76
2021/08/25 02:22:38;;;;;;;11.48;3.85;;;9.40;99.90;;;7.86;100.00;102552.81;5020681;28;20118;-76
2021/08/25 02:25:04;;;;;;;10.45;4.10;;;9.40;99.90;;;7.90;100.00;102566.75;5049314;28;20562;-76
2021/08/25 02:27:30;;;;;;;10.65;4.47;;;9.50;99.90;;;7.89;100.00;102605.22;5051133;28;20037;-76
2021/08/25 02:29:56;;;;;;;12.98;4.80;;;9.40;99.90;;;7.87;100.00;102593.00;5040272;28;20077;-76
2021/08/25 02:32:26;;;;;;;14.93;4.00;;;9.40;99.90;;;7.86;100.00;102617.47;5051430;28;20415;-75
2021/08/25 02:34:53;;;;;;;13.82;4.13;;;9.40;99.90;;;7.90;100.00;102612.22;5047427;28;20055;-75
2021/08/25 02:37:20;;;;;;;10.55;4.90;;;9.40;99.90;;;8.02;100.00;102580.66;5050323;28;20090;-76
2021/08/25 02:39:47;;;;;;;10.63;4.35;;;9.50;99.90;;;8.13;100.00;102595.47;5050242;28;20066;-75
2021/08/25 02:42:13;;;;;;;9.23;4.22;;;9.70;99.90;;;8.22;100.00;102661.88;5064632;28;20059;-75
2021/08/25 02:44:39;;;;;;;11.52;4.25;;;9.70;99.90;;;8.24;100.00;102680.25;5034364;28;20384;-75
2021/08/25 02:47:05;;;;;;;11.18;4.47;;;9.70;99.90;;;8.27;100.00;102689.84;5047929;28;20114;-75
2021/08/25 02:49:31;;;;;;;10.57;4.55;;;9.70;99.90;;;8.30;100.00;102700.34;5032940;28;20055;-75
2021/08/25 02:51:57;;;;;;;10.18;4.30;;;9.80;99.90;;;8.38;100.00;102732.66;5048658;28;20067;-75
2021/08/25 02:54:23;;;;;;;9.38;4.07;;;9.80;99.90;;;8.43;100.00;102709.06;5042600;28;20124;-75
2021/08/25 02:56:49;;;;;;;7.35;3.50;;;9.90;99.90;;;8.48;100.00;102702.88;5056054;28;20085;-75
2021/08/25 02:59:15;;;;;;;9.38;4.10;;;9.90;99.90;;;8.54;100.00;102723.84;5031403;28;20044;-75
2021/08/25 03:01:41;;;;;;;7.18;3.75;;;10.00;99.90;;;8.60;100.00;102739.56;5047244;28;20538;-75
2021/08/25 03:04:07;;;;;;;10.68;4.10;;;10.00;99.90;;;8.65;100.00;102729.03;5031299;28;20098;-75
2021/08/25 03:06:33;;;;;;;11.20;3.97;;;10.10;99.90;;;8.69;100.00;102746.53;5049793;28;20438;-75
2021/08/25 03:08:59;;;;;;;12.85;4.25;;;10.10;99.90;;;8.72;100.00;102791.13;5032719;28;20033;-76
2021/08/25 03:11:25;;;;;;;9.30;3.92;;;10.10;99.90;;;8.71;100.00;102783.28;5031063;28;20059;-76
2021/08/25 03:13:51;;;;;;;9.95;3.80;;;10.10;99.90;;;8.72;100.00;102792.91;5033693;28;20126;-75
2021/08/25 03:16:17;;;;;;;9.88;3.85;;;10.10;99.90;;;8.72;100.00;102827.06;5034518;28;20078;-75
2021/08/25 03:18:43;;;;;;;7.03;3.45;;;10.10;99.90;;;8.75;100.00;102804.28;5054004;28;20059;-75
2021/08/25 03:21:09;;;;;;;8.35;3.92;;;10.20;99.90;;;8.73;100.00;102787.66;5052059;28;20349;-75
2021/08/25 03:23:35;;;;;;;6.13;3.63;;;10.20;99.90;;;8.74;100.00;102820.91;5036431;28;20069;-76
2021/08/25 03:26:01;;;;;;;8.60;3.45;;;10.20;99.90;;;8.74;100.00;102844.53;5052630;28;20059;-75
2021/08/25 03:28:27;;;;;;;9.63;3.70;;;10.10;99.90;;;8.76;100.00;102842.78;5033575;28;20062;-75
2021/08/25 03:30:56;;;;;;;8.63;3.30;;;10.20;99.90;;;8.80;100.00;102852.41;5053319;28;20063;-76
2021/08/25 03:33:23;;;;;;;8.18;3.90;;;10.20;99.90;;;8.82;100.00;102839.25;5049205;28;20511;-75
2021/08/25 03:35:50;;;;;;;7.57;3.60;;;10.20;99.90;;;8.86;100.00;102877.78;5053909;28;20443;-76
2021/08/25 03:38:17;;;;;;;9.02;3.25;;;10.30;99.90;;;8.89;100.00;102869.00;5051789;28;20062;-75
2021/08/25 03:40:43;;;;;;;8.48;3.30;;;10.30;99.90;;;8.88;100.00;102885.66;5043936;28;20388;-75
2021/08/25 03:43:09;;;;;;;8.70;3.80;;;10.30;99.90;;;8.93;100.00;102868.09;5052649;28;20036;-76
2021/08/25 03:45:35;;;;;;;9.70;3.78;;;10.30;99.90;;;8.92;100.00;102900.50;5050308;28;20032;-75
2021/08/25 03:48:01;;;;;;;8.75;3.47;;;10.30;99.90;;;8.91;100.00;102918.03;5051602;28;20082;-76
2021/08/25 03:50:27;;;;;;;8.77;3.00;;;10.30;99.90;;;8.90;100.00;102916.28;5034477;28;20055;-75
2021/08/25 03:52:53;;;;;;;9.77;3.30;;;10.30;99.90;;;8.92;100.00;102924.13;5055372;28;20024;-76
2021/08/25 03:55:19;;;;;;;9.60;3.83;;;10.30;99.90;;;8.93;100.00;102944.28;5053396;28;20435;-76
2021/08/25 03:57:45;;;;;;;7.55;3.65;;;10.30;99.90;;;8.93;100.00;102947.78;5066569;28;20082;-75
2021/08/25 04:00:12;;;;;;;10.70;3.45;;;10.30;99.90;;;8.98;100.00;102905.72;5051436;28;20055;-75
2021/08/25 04:02:38;;;;;;;9.93;4.03;;;10.40;99.90;;;9.03;100.00;102949.50;5050432;28;20060;-75
2021/08/25 04:05:04;;;;;;;7.43;3.83;;;10.40;99.90;;;9.02;100.00;102899.56;5049498;28;20423;-75
2021/08/25 04:07:30;;;;;;;14.82;4.13;;;10.40;99.90;;;9.01;100.00;102953.03;5050150;28;20086;-75
2021/08/25 04:09:56;;;;;;;13.82;4.38;;;10.40;99.90;;;9.06;100.00;103008.19;5052874;28;20035;-75
2021/08/25 04:12:22;;;;;;;8.45;3.70;;;10.40;99.90;;;9.09;100.00;102896.03;5050261;28;20496;-75
2021/08/25 04:14:48;;;;;;;9.38;3.85;;;10.50;99.90;;;9.11;100.00;102920.53;5051996;28;20063;-75
2021/08/25 04:17:14;;;;;;;9.48;3.60;;;10.50;99.90;;;9.17;100.00;102920.50;5033580;28;20028;-75
2021/08/25 04:19:40;;;;;;;10.07;4.20;;;10.50;99.90;;;9.17;100.00;102893.34;5036012;28;20119;-75
2021/08/25 04:22:06;;;;;;;8.35;3.50;;;11.80;99.90;;;9.19;100.00;102902.13;5035093;28;20032;-75
2021/08/25 04:24:32;;;;;;;8.75;4.28;;;10.60;99.90;;;9.21;100.00;102874.06;5034965;28;20062;-75
2021/08/25 04:26:58;;;;;;;8.45;3.70;;;10.50;99.90;;;9.18;100.00;102855.69;5051715;28;20032;-75
2021/08/25 04:29:24;;;;;;;9.60;4.00;;;10.50;99.90;;;9.18;100.00;102860.94;5033006;28;20495;-76
2021/08/25 04:31:50;;;;;;;9.15;3.97;;;10.60;99.90;;;9.24;100.00;102853.00;5052213;28;20051;-76
2021/08/25 04:34:16;;;;;;;7.80;3.65;;;10.60;99.90;;;9.29;100.00;102866.09;5052506;28;20059;-75
2021/08/25 04:36:42;;;;;;;12.15;4.80;;;10.60;99.90;;;9.36;100.00;102854.69;5050354;28;20395;-75
2021/08/25 04:39:08;;;;;;;30.00;11.82;;;10.70;99.90;;;9.43;100.00;102885.28;5042981;28;20081;-75
2021/08/25 04:41:34;;;;;;;18.13;6.68;;;10.80;99.90;;;9.53;100.00;102871.19;5061519;28;20070;-76
2021/08/25 04:44:00;;;;;;;18.80;5.78;;;10.90;99.90;;;9.54;100.00;102878.19;5040145;28;20070;-75
2021/08/25 04:46:26;;;;;;;17.25;5.35;;;10.30;99.90;;;9.59;100.00;102865.00;5042774;28;20522;-75
2021/08/25 04:48:52;;;;;;;6.90;3.58;;;11.00;99.90;;;9.65;100.00;102873.75;5050480;28;20078;-75
2021/08/25 04:51:18;;;;;;;8.48;3.20;;;11.00;99.90;;;9.74;100.00;102853.47;5026834;28;20472;-76
2021/08/25 04:53:44;;;;;;;7.45;3.42;;;11.10;99.90;;;9.80;100.00;102832.38;5050963;28;20144;-75
2021/08/25 04:56:10;;;;;;;7.80;3.58;;;11.10;99.90;;;9.85;100.00;102846.38;5051048;28;20492;-75
2021/08/25 04:58:36;;;;;;;9.85;3.10;;;11.20;99.90;;;9.89;100.00;102839.31;5048568;28;20059;-75
2021/08/25 05:01:07;;;;;;;7.05;3.13;;;11.20;99.90;;;9.92;100.00;102841.91;5051888;28;20035;-75
2021/08/25 05:03:37;;;;;;;8.35;3.30;;;11.30;99.90;;;9.97;100.00;102834.84;5048794;28;20021;-75
2021/08/25 05:06:11;;;;;;;8.07;3.50;;;11.40;99.90;;;10.02;100.00;102827.75;5050627;28;20085;-76
2021/08/25 05:08:38;;;;;;;6.10;2.90;;;11.40;99.90;;;10.06;100.00;102816.31;5021222;28;20025;-75
2021/08/25 05:11:07;;;;;;;12.93;3.30;;;11.40;99.90;;;10.03;100.00;102846.16;5033434;28;20515;-75
2021/08/25 05:13:33;;;;;;;9.60;2.88;;;11.30;99.90;;;10.06;100.00;102826.84;5048062;28;20388;-76
2021/08/25 05:16:00;;;;;;;6.45;3.00;;;11.40;99.90;;;10.05;100.00;102797.03;5051014;28;20067;-75
2021/08/25 05:18:27;;;;;;;7.80;3.72;;;11.40;99.90;;;10.07;100.00;102789.97;5047476;28;20055;-76
2021/08/25 05:20:54;;;;;;;9.65;3.45;;;11.40;99.90;;;10.13;100.00;102782.88;5050426;28;20079;-75
2021/08/25 05:23:21;;;;;;;8.90;3.25;;;;;;;10.17;100.00;102784.59;5048106;28;20447;-75
2021/08/25 05:25:47;;;;;;;6.97;3.33;;;11.50;99.90;;;10.24;100.00;102791.56;5051347;28;20044;-76
2021/08/25 05:28:13;;;;;;;6.38;3.20;;;11.60;99.90;;;10.26;100.00;102795.03;5032306;28;20066;-76
2021/08/25 05:30:39;;;;;;;11.13;3.22;;;11.60;99.90;;;10.33;100.00;102790.59;5033632;28;20080;-75
2021/08/25 05:33:05;;;;;;;7.10;3.75;;;11.70;99.90;;;10.41;100.00;102878.25;5050582;28;20093;-75
2021/08/25 05:35:31;;;;;;;6.18;3.20;;;11.70;99.90;;;10.46;100.00;102887.84;5048502;28;20079;-75
2021/08/25 05:37:57;;;;;;;8.35;3.20;;;11.80;99.90;;;10.53;100.00;102814.91;5049923;28;20059;-75
2021/08/25 05:40:23;;;;;;;6.85;3.20;;;11.80;99.90;;;10.60;100.00;102811.28;5047742;28;20059;-75
2021/08/25 05:42:49;;;;;;;6.70;3.25;;;11.90;99.90;;;10.66;100.00;102800.66;5050560;28;20032;-75
2021/08/25 05:45:15;;;;;;;5.22;3.05;;;12.00;99.90;;;10.76;99.62;102797.94;5050909;28;20062;-75
2021/08/25 05:47:41;;;;;;;7.75;2.60;;;12.10;99.90;;;10.85;98.97;102803.06;5032206;28;20028;-75
2021/08/25 05:50:09;;;;;;;12.68;2.88;;;12.20;99.90;;;10.93;98.55;102808.19;5023263;28;20028;-75
2021/08/25 05:52:35;;;;;;;7.60;3.50;;;12.30;99.90;;;11.02;97.82;102792.25;5051065;28;20033;-75
2021/08/25 05:55:01;;;;;;;5.53;2.70;;;12.30;99.90;;;11.09;97.22;102783.34;5032230;28;20147;-76
2021/08/25 05:57:28;;;;;;;9.45;2.92;;;12.40;99.90;;;11.21;96.24;102795.44;5048536;28;20056;-75
2021/08/25 05:59:55;;;;;;;7.05;2.80;;;12.50;99.90;;;11.30;94.92;102771.59;5041041;28;20468;-75
2021/08/25 06:02:22;;;;;;;8.23;3.15;;;12.60;99.90;;;11.42;93.67;102771.34;5052134;28;20058;-75
2021/08/25 06:04:48;;;;;;;7.88;2.33;;;12.70;99.90;;;11.50;93.31;102777.38;5050515;28;20502;-75
2021/08/25 06:07:14;;;;;;;6.88;2.80;;;12.80;99.90;;;11.60;92.84;102774.59;5050857;28;20029;-75
2021/08/25 06:09:40;;;;;;;5.85;2.85;;;12.90;99.90;;;11.66;91.53;102766.53;5038574;28;20063;-75
2021/08/25 06:12:06;;;;;;;7.20;2.92;;;12.90;99.90;;;11.74;91.87;102769.91;5033907;28;20051;-76
2021/08/25 06:14:32;;;;;;;13.30;3.92;;;13.00;99.90;;;11.81;90.31;102758.31;5052639;28;20082;-75
2021/08/25 06:16:58;;;;;;;5.60;2.55;;;13.10;99.90;;;11.88;89.45;102754.72;5046717;28;20052;-75
2021/08/25 06:19:25;;;;;;;8.95;3.08;;;13.20;99.90;;;11.95;89.38;102747.53;5058811;28;20370;-75
2021/08/25 06:21:51;;;;;;;8.57;3.15;;;13.20;99.90;;;12.03;88.01;102753.53;5046472;28;20097;-75
2021/08/25 06:24:17;;;;;;;9.20;3.28;;;13.30;99.90;;;12.13;86.67;102750.72;5047889;28;20029;-76
2021/08/25 06:26:43;;;;;;;10.65;3.35;;;13.40;99.90;;;12.21;85.92;102740.84;5048246;28;20023;-76
2021/08/25 06:29:09;;;;;;;10.80;3.28;;;13.50;99.90;;;12.31;84.47;102738.00;5049945;28;20455;-75
2021/08/25 06:31:36;;;;;;;7.82;3.28;;;13.60;99.90;;;12.40;84.55;102742.19;5031178;28;20031;-75
2021/08/25 06:34:02;;;;;;;7.57;3.40;;;13.60;99.90;;;12.41;84.05;102736.00;5032249;28;20051;-75
2021/08/25 06:36:28;;;;;;;7.55;2.95;;;13.70;99.90;;;12.47;83.45;102730.56;5032313;28;20037;-75
2021/08/25 06:38:54;;;;;;;8.32;3.17;;;13.70;99.90;;;12.53;83.01;102724.28;5049217;28;20102;-75
2021/08/25 06:41:20;;;;;;;7.72;3.35;;;;;;;12.57;83.02;102727.72;5051770;28;20024;-75
2021/08/25 06:43:46;;;;;;;8.35;3.20;;;13.80;99.90;;;12.65;82.19;102715.19;5047747;28;20031;-75
2021/08/25 06:46:12;;;;;;;10.98;2.95;;;13.90;99.90;;;12.72;81.90;102715.03;5033493;28;20029;-75
2021/08/25 06:48:41;;;;;;;6.93;3.20;;;14.00;99.90;;;12.82;81.59;102715.66;5049507;28;20542;-75
2021/08/25 06:51:07;;;;;;;7.18;3.40;;;14.10;99.90;;;12.92;81.03;102708.38;5036796;28;20020;-75
2021/08/25 06:53:35;;;;;;;11.55;3.40;;;14.10;99.90;;;12.99;81.16;102702.03;5034540;28;20037;-75
2021/08/25 06:56:01;;;;;;;9.90;3.22;;;14.20;99.90;;;13.07;80.75;102700.06;5036837;28;20036;-75
2021/08/25 06:58:27;;;;;;;12.65;3.80;;;14.30;99.90;;;13.13;80.43;102739.59;5035593;28;20020;-75
2021/08/25 07:00:55;;;;;;;7.60;3.70;;;14.30;99.90;;;13.17;79.92;102705.09;5053919;28;20037;-75
2021/08/25 07:03:22;;;;;;;8.68;3.67;;;14.40;99.90;;;13.24;79.57;102697.00;5050685;28;20377;-75
2021/08/25 07:05:48;;;;;;;9.57;3.40;;;14.40;99.90;;;13.31;79.46;102677.41;5053115;28;20029;-75
2021/08/25 07:08:14;;;;;;;9.75;3.80;;;14.50;99.90;;;13.41;78.90;102677.16;5035353;28;20025;-75
2021/08/25 07:10:40;;;;;;;10.82;3.72;;;14.60;99.90;;;13.53;78.94;102680.34;5033976;28;20029;-75
2021/08/25 07:13:07;;;;;;;9.23;3.63;;;14.10;99.90;;;13.58;78.39;102677.56;5052540;28;20040;-75
2021/08/25 07:15:33;;;;;;;9.27;3.13;;;14.80;99.90;;;13.70;77.28;102681.66;5053530;28;20045;-75
2021/08/25 07:17:59;;;;;;;7.97;3.53;;;14.80;99.90;;;13.76;77.25;102689.41;5034890;28;20031;-75
2021/08/25 07:35:15;;;;;;;12.23;3.80;;;15.20;99.90;;;14.18;74.64;102632.56;5030099;28;20941;-75
2021/08/25 07:37:41;;;;;;;9.70;3.83;;;15.30;99.90;;;14.32;74.91;102638.28;5028299;28;20493;-76
2021/08/25 07:40:09;;;;;;;7.43;3.70;;;15.40;99.90;;;14.46;73.79;102646.66;5043775;28;20179;-75
2021/08/25 07:42:35;;;;;;;10.48;3.35;;;15.60;99.90;;;14.62;72.87;102649.72;5029890;28;20059;-75
2021/08/25 07:45:02;;;;;;;6.05;3.65;;;15.70;99.90;;;14.72;71.82;102642.31;5027831;28;20029;-75
2021/08/25 07:47:28;;;;;;;6.55;3.38;;;15.90;99.90;;;15.18;71.60;102691.13;5028145;28;20033;-75
2021/08/25 07:49:54;;;;;;;6.40;3.40;;;16.70;99.90;;;16.34;67.30;102754.22;5011733;28;20091;-75
2021/08/25 07:52:20;;;;;;;8.50;3.50;;;17.00;99.90;;;16.20;66.86;102702.47;5030916;28;20021;-75
2021/08/25 07:54:46;;;;;;;8.75;3.75;;;16.90;99.90;;;16.24;67.13;102692.59;5025454;28;20076;-75
2021/08/25 07:57:12;;;;;;;9.05;3.65;;;17.10;99.90;;;16.35;66.40;102692.16;5023394;28;20052;-75
2021/08/25 07:59:38;;;;;;;10.60;3.83;;;17.20;99.90;;;16.60;66.47;102706.19;5049534;28;20025;-75
2021/08/25 08:02:04;;;;;;;12.95;3.40;;;17.70;99.90;;;17.40;63.02;102728.59;5030202;28;20040;-76
2021/08/25 08:04:30;;;;;;;6.72;3.55;;;18.10;99.90;;;17.71;61.54;102700.59;5027482;28;20041;-75
2021/08/25 08:06:56;;;;;;;6.15;3.13;;;18.40;99.90;;;17.89;60.89;102693.63;5031580;28;20063;-75
2021/08/25 08:09:22;;;;;;;7.68;3.33;;;18.50;99.90;;;18.21;60.71;102694.78;5046167;28;20032;-75
2021/08/25 13:21:08;;;;;;;16.42;1.20;;;18.40;99.90;;;17.27;74.46;101471.00;5062579;27;20414;-75
2021/08/25 13:23:34;;;;;;;3.20;1.13;;;18.20;99.90;;;17.11;75.41;101455.16;5059341;28;20028;-75
2021/08/25 13:26:00;;;;;;;2.95;0.80;;;18.30;99.90;;;17.28;76.29;101472.69;5024292;28;20061;-75
2021/08/25 13:28:26;;;;;;;3.88;0.80;;;18.30;99.90;;;17.36;76.72;101457.94;5035323;28;20548;-75
2021/08/25 13:30:52;;;;;;;4.78;0.80;;;18.40;99.90;;;17.45;76.56;101476.94;5021160;28;20037;-75
2021/08/25 13:33:18;;;;;;;6.85;0.70;;;18.50;99.90;;;17.49;76.21;101467.81;5018285;28;20029;-75
2021/08/25 13:35:44;;;;;;;5.78;1.00;;;18.50;99.90;;;17.58;75.99;101481.41;5029229;28;20039;-75
2021/08/25 13:38:10;;;;;;;3.67;0.75;;;18.50;99.90;;;17.45;76.15;101442.34;5048397;28;20033;-75
2021/08/25 13:40:37;;;;;;;8.73;1.25;;;18.40;99.90;;;17.35;76.48;101426.13;5028030;28;20051;-75
2021/08/25 13:43:04;;;;;;;6.00;0.90;;;18.10;99.90;;;16.98;78.19;101392.06;5024799;28;20112;-76
2021/08/25 13:45:31;;;;;;;2.38;0.82;;;18.00;99.90;;;16.92;79.55;101380.94;5063728;28;20023;-75
2021/08/25 13:47:57;;;;;;;2.35;0.70;;;18.00;99.90;;;16.91;79.99;101380.09;5026623;28;20108;-74
2021/08/25 13:50:23;;;;;;;6.32;0.80;;;18.00;99.90;;;16.97;79.74;101389.47;5010074;28;20465;-75
2021/08/25 13:52:49;;;;;;;2.05;0.80;;;18.10;99.90;;;16.96;79.97;101382.47;5025226;28;20037;-75
2021/08/25 13:55:15;;;;;;;2.22;0.73;;;18.00;99.90;;;16.93;80.75;101372.88;5061283;28;20080;-75
2021/08/25 13:57:41;;;;;;;2.70;0.70;;;18.10;99.90;;;16.98;80.16;101376.09;5016624;28;20489;-75
2021/08/25 14:00:08;;;;;;;8.98;1.00;;;18.00;99.90;;;16.80;79.58;101343.53;5015884;28;20039;-75
2021/08/25 14:02:34;;;;;;;2.97;0.95;;;17.90;99.90;;;16.79;79.97;101359.53;5026198;28;20079;-75
2021/08/25 14:05:00;;;;;;;5.85;1.05;;;17.80;99.90;;;16.74;79.75;101341.22;5009879;28;20108;-75
2021/08/25 14:07:26;;;;;;;8.20;0.98;;;17.80;99.90;;;16.64;81.69;101331.25;5025461;28;20029;-75
2021/08/25 14:09:53;;;;;;;1.42;0.82;;;17.70;99.90;;;16.66;81.49;101326.69;5026731;28;20045;-75
2021/08/25 14:12:19;;;;;;;2.58;0.70;;;17.70;99.90;;;16.72;81.05;101321.00;5009714;28;20112;-75
2021/08/25 14:14:45;;;;;;;1.48;0.70;;;17.90;99.90;;;16.91;81.09;101326.03;5025757;28;20044;-75
2021/08/25 14:17:11;;;;;;;5.70;1.00;;;17.90;99.90;;;16.85;81.11;101318.47;5026058;28;20034;-75
2021/08/25 14:19:37;;;;;;;0.90;0.60;;;18.00;99.90;;;16.90;80.34;101314.53;5026964;28;20404;-76
2021/08/25 14:22:03;;;;;;;5.50;0.88;;;17.90;99.90;;;16.84;80.08;101308.75;5062061;28;20111;-75
2021/08/25 14:24:29;;;;;;;3.33;0.90;;;17.90;99.90;;;16.80;80.69;101298.31;5018063;28;20115;-75
2021/08/25 14:26:55;;;;;;;4.90;1.10;;;17.90;99.90;;;16.74;81.38;101300.50;5034487;28;20029;-75
2021/08/25 14:29:21;;;;;;;6.88;0.90;;;17.80;99.90;;;16.55;82.24;101274.22;5026536;28;20040;-75
2021/08/25 14:31:48;;;;;;;4.47;1.05;;;17.70;99.90;;;16.52;82.39;101275.25;5015572;28;20045;-75
2021/08/25 14:34:14;;;;;;;4.95;1.20;;;17.60;99.90;;;16.44;83.11;101264.25;5011835;28;20109;-75
2021/08/25 14:36:40;;;;;;;7.05;0.70;;;17.40;99.90;;;16.28;84.88;101248.38;4996576;28;20029;-75
2021/08/25 14:39:06;;;;;;;12.23;1.08;;;17.20;99.90;;;16.09;86.54;101230.09;4996859;28;20443;-75
2021/08/25 14:41:33;;;;;;;4.38;1.10;;;17.20;99.90;;;16.09;86.75;101232.75;5013457;28;20038;-75
2021/08/25 14:43:59;;;;;;;3.05;0.90;;;17.20;99.90;;;16.09;87.36;101237.19;5011529;28;20156;-75
2021/08/25 14:46:27;;;;;;;2.03;0.90;;;17.10;99.90;;;16.02;87.54;101222.59;5012335;28;20028;-75
2021/08/25 14:48:53;;;;;;;3.42;1.00;;;17.10;99.90;;;15.83;89.59;101207.78;5011005;28;20030;-75
2021/08/25 14:51:20;;;;;;;4.43;0.80;;;17.00;99.90;;;15.69;92.26;101211.25;4996184;28;20021;-75
2021/08/25 14:53:46;;;;;;;3.67;1.10;;;16.80;99.90;;;15.56;93.80;101218.22;4992845;28;20021;-75
2021/08/25 14:56:12;;;;;;;5.70;1.30;;;16.60;99.90;;;15.35;95.37;101398.97;4996789;28;20449;-76
2021/08/25 14:58:38;;;;;;;2.28;1.23;;;16.50;99.90;;;15.30;97.39;101350.63;4996131;28;20104;-75
2021/08/25 15:01:04;;;;;;;12.20;1.23;;;16.40;99.90;;;15.19;99.11;101284.06;5010580;28;20021;-75
2021/08/25 15:03:30;;;;;;;2.80;1.30;;;16.30;99.90;;;15.18;100.00;101246.09;5010034;28;22402;-75
2021/08/25 15:05:59;;;;;;;6.75;1.33;;;16.20;99.90;;;15.02;100.00;101229.34;4995804;28;20029;-76
2021/08/25 15:08:29;;;;;;;1.55;1.23;;;16.00;99.90;;;14.76;100.00;101210.44;5029575;28;20396;-77
2021/08/25 15:10:55;;;;;;;5.70;1.38;;;15.80;99.90;;;14.72;100.00;101193.00;5018565;28;20037;-77
2021/08/25 15:13:22;;;;;;;4.43;1.42;;;15.80;99.90;;;14.62;100.00;101183.00;5006546;28;20045;-78
2021/08/25 15:15:48;;;;;;;4.70;1.80;;;15.70;99.90;;;14.58;100.00;101187.66;5001532;28;20029;-78
2021/08/25 15:18:14;;;;;;;7.43;1.80;;;15.70;99.90;;;14.59;100.00;101201.75;5019544;28;20079;-78
2021/08/25 15:20:49;;;;;;;3.55;1.60;;;15.60;99.90;;;14.49;100.00;101241.97;4985911;28;20044;-79
2021/08/25 15:23:15;;;;;;;2.45;2.10;;;15.60;99.90;;;14.53;100.00;101205.53;5017906;28;20080;-78
2021/08/25 15:25:41;;;;;;;7.97;1.90;;;15.60;99.90;;;14.44;100.00;101180.41;4987720;28;20025;-79
2021/08/25 15:28:07;;;;;;;3.13;1.70;;;15.60;99.90;;;14.44;100.00;101185.72;4978440;28;20361;-78
2021/08/25 15:30:33;;;;;;;10.15;1.88;;;15.60;99.90;;;14.46;100.00;101173.25;5017056;28;20037;-78
2021/08/25 15:33:01;;;;;;;3.63;2.25;;;15.50;99.90;;;14.46;100.00;101170.59;4989677;28;20032;-79
2021/08/25 15:35:27;;;;;;;5.75;2.00;;;15.60;99.90;;;14.50;100.00;101173.94;4996841;28;20025;-78